Time;durP1;ratioP1;P1;durP2;ratioP2;P2;SDS_P1;SDS_P2;PMS_P1;PMS_P2;Temp;Humidity;BMP_temperature;BMP_pressure;BME280_temperature;BME280_humidity;BME280_pressure;Samples;Min_cycle;Max_cycle;Signal;HPM_P1;HPM_P2
2021/01/24 00:01:26;;;;;;;13.85;11.77;;;;;;;3.79;94.91;98641.09;5075338;28;20055;-73
2021/01/24 00:04:30;;;;;;;13.98;11.95;;;;;;;3.84;94.83;98646.84;5076111;28;20043;-74
2021/01/24 00:07:34;;;;;;;;;;;;;;;3.79;94.96;98629.63;5076718;28;20055;-72
2021/01/24 00:10:39;;;;;;;15.27;13.32;;;;;;;3.80;95.30;98636.63;5075948;28;19916;-74
2021/01/24 00:13:44;;;;;;;16.35;12.85;;;;;;;3.83;95.24;98633.69;5076555;28;20390;-73
2021/01/24 00:16:48;;;;;;;16.45;13.25;;;;;;;3.81;95.72;98635.63;5076219;28;20055;-74
2021/01/24 00:19:52;;;;;;;14.20;12.70;;;;;;;3.86;95.39;98622.81;5075843;28;20055;-73
2021/01/24 00:22:57;;;;;;;14.13;12.40;;;;;;;3.83;95.40;98631.03;5074934;28;20055;-73
2021/01/24 00:26:01;;;;;;;14.45;12.75;;;;;;;3.80;95.18;98618.88;5075711;28;20395;-74
2021/01/24 00:29:08;;;;;;;15.95;12.77;;;;;;;3.83;95.34;98628.38;5075924;28;20154;-72
2021/01/24 00:32:12;;;;;;;16.38;12.48;;;;;;;3.85;95.07;98605.22;5074575;28;20056;-73
2021/01/24 00:35:17;;;;;;;16.23;12.68;;;;;;;3.81;95.17;98620.56;5074690;28;20053;-72
2021/01/24 00:38:21;;;;;;;17.63;14.38;;;;;;;3.78;95.16;98617.31;5074652;28;20055;-73
2021/01/24 00:41:25;;;;;;;16.13;12.43;;;;;;;3.86;95.19;98613.03;5075402;28;20067;-73
2021/01/24 00:44:29;;;;;;;16.00;13.32;;;;;;;3.87;95.09;98617.38;5074523;28;20059;-74
2021/01/24 00:47:34;;;;;;;15.48;13.07;;;;;;;3.80;95.10;98626.84;5075241;28;20059;-73
2021/01/24 00:50:38;;;;;;;16.25;13.27;;;;;;;3.70;94.98;98630.44;5075117;28;20051;-71
2021/01/24 00:53:43;;;;;;;16.25;13.48;;;;;;;3.70;95.22;98633.91;5062760;28;20048;-71
2021/01/24 00:56:47;;;;;;;15.07;13.48;;;;;;;3.78;95.50;98636.75;5075015;28;20391;-74
2021/01/24 00:59:52;;;;;;;14.27;12.77;;;;;;;3.80;95.59;98633.97;5075037;28;20055;-73
2021/01/24 01:02:56;;;;;;;15.80;13.75;;;;;;;3.71;95.35;98638.25;5074966;28;20383;-73
2021/01/24 01:06:00;;;;;;;16.08;13.68;;;;;;;3.65;95.43;98644.13;5074899;28;20067;-73
2021/01/24 01:09:05;;;;;;;15.32;13.65;;;;;;;3.63;95.13;98645.22;5073538;28;20067;-72
2021/01/24 01:12:09;;;;;;;15.23;13.00;;;;;;;3.61;95.32;98636.53;5074524;28;20063;-73
2021/01/24 01:15:14;;;;;;;14.07;12.57;;;;;;;3.58;95.25;98637.63;5073792;28;20055;-73
2021/01/24 01:18:19;;;;;;;16.80;13.82;;;;;;;3.50;95.43;98652.56;5074407;28;20059;-73
2021/01/24 01:21:23;;;;;;;17.83;14.68;;;;;;;3.44;95.51;98640.66;5073795;28;20051;-73
2021/01/24 01:24:27;;;;;;;15.00;13.32;;;;;;;3.41;95.42;98651.50;5074583;28;20052;-72
2021/01/24 01:27:32;;;;;;;17.95;15.10;;;;;;;3.23;95.25;98640.66;5073812;28;20115;-72
2021/01/24 01:30:36;;;;;;;15.85;14.15;;;;;;;3.22;95.50;98638.16;5073780;28;20056;-73
2021/01/24 01:33:40;;;;;;;16.00;14.35;;;;;;;3.09;95.73;98643.66;5074327;28;20063;-73
2021/01/24 01:36:45;;;;;;;18.40;14.82;;;;;;;3.09;96.04;98638.34;5074138;28;20055;-72
2021/01/24 01:39:49;;;;;;;20.13;16.13;;;;;;;3.09;95.88;98643.66;5073230;28;20044;-72
2021/01/24 01:42:56;;;;;;;18.05;16.15;;;;;;;3.05;96.27;98639.59;5073793;28;20056;-71
2021/01/24 01:46:00;;;;;;;21.13;17.50;;;;;;;3.11;96.46;98636.41;5074155;28;20047;-73
2021/01/24 01:49:04;;;;;;;18.05;16.13;;;;;;;3.07;96.54;98631.50;5074182;28;20047;-73
2021/01/24 01:52:08;;;;;;;18.08;15.07;;;;;;;3.13;96.69;98626.53;5073770;28;20048;-73
2021/01/24 01:55:16;;;;;;;14.80;13.30;;;;;;;3.14;96.63;98608.81;5074344;28;20043;-74
2021/01/24 01:58:20;;;;;;;15.43;13.82;;;;;;;3.16;96.46;98618.31;5073744;28;20399;-73
2021/01/24 02:01:29;;;;;;;17.27;13.82;;;;;;;3.14;96.18;98614.09;5074265;28;20490;-72
2021/01/24 02:04:44;;;;;;;16.40;12.63;;;;;;;3.13;96.05;98609.78;5074312;28;20482;-73
2021/01/24 02:08:08;;;;;;;18.25;14.18;;;;;;;3.06;95.96;98621.88;5074235;28;20051;-72
2021/01/24 02:11:48;;;;;;;14.98;13.38;;;;;;;3.05;95.52;98613.09;5073888;28;20052;-73
2021/01/24 02:15:14;;;;;;;14.77;12.80;;;;;;;2.97;95.52;98606.75;5073982;28;20051;-72
2021/01/24 02:18:20;;;;;;;14.88;13.05;;;;;;;2.98;95.48;98609.28;5091475;28;20403;-73
2021/01/24 02:21:30;;;;;;;14.93;12.57;;;;;;;2.97;95.13;98620.84;5094030;28;20059;-73
2021/01/24 02:24:39;;;;;;;16.13;13.07;;;;;;;2.90;94.96;98621.50;5092727;28;20055;-72
2021/01/24 02:27:59;;;;;;;16.80;13.20;;;;;;;2.89;95.19;98622.47;5093394;28;20514;-71
2021/01/24 02:31:04;;;;;;;16.80;13.55;;;;;;;2.90;95.15;98613.53;5093935;28;20047;-73
2021/01/24 02:34:11;;;;;;;16.55;14.40;;;;;;;2.85;95.20;98608.63;5093910;28;20058;-73
2021/01/24 02:37:17;;;;;;;15.85;13.55;;;;;;;2.81;95.61;98596.63;5093831;28;20070;-73
2021/01/24 02:40:21;;;;;;;16.50;14.80;;;;;;;2.79;95.70;98598.53;5093872;28;20047;-74
2021/01/24 02:43:26;;;;;;;19.52;16.35;;;;;;;2.75;96.02;98599.78;5094140;28;20047;-74
2021/01/24 02:46:31;;;;;;;19.80;16.42;;;;;;;2.80;96.15;98610.81;5093878;28;20054;-73
2021/01/24 02:49:37;;;;;;;21.85;17.73;;;;;;;2.74;96.22;98613.97;5094369;28;20047;-72
2021/01/24 02:52:43;;;;;;;19.23;16.27;;;;;;;2.78;96.49;98612.78;5094002;28;20055;-75
2021/01/24 02:55:48;;;;;;;19.17;16.00;;;;;;;2.85;96.50;98615.72;5096764;28;20501;-73
2021/01/24 02:58:53;;;;;;;19.00;16.85;;;;;;;2.77;96.40;98626.97;5097079;28;20051;-73
2021/01/24 03:01:58;;;;;;;19.63;16.40;;;;;;;2.79;96.44;98627.69;5097322;28;20051;-72
2021/01/24 03:05:03;;;;;;;20.85;16.17;;;;;;;2.77;96.55;98629.63;5097515;28;20058;-73
2021/01/24 03:08:08;;;;;;;21.13;17.90;;;;;;;2.77;96.28;98624.31;5097422;28;20051;-72
2021/01/24 03:11:17;;;;;;;19.45;17.33;;;;;;;2.71;96.23;98622.19;5097300;28;20047;-72
2021/01/24 03:14:25;;;;;;;17.27;15.43;;;;;;;2.85;96.75;98621.88;5096503;28;20047;-72
2021/01/24 03:17:31;;;;;;;19.60;16.33;;;;;;;2.90;96.42;98627.63;5097073;28;20043;-73
2021/01/24 03:20:40;;;;;;;19.02;17.02;;;;;;;2.95;96.53;98624.59;5096666;28;20051;-73
2021/01/24 03:23:45;;;;;;;32.00;20.25;;;;;;;2.99;96.63;98628.66;5096594;28;20055;-74
2021/01/24 03:26:51;;;;;;;28.80;20.70;;;;;;;3.09;96.69;98626.91;5096862;28;20047;-72
2021/01/24 03:29:55;;;;;;;31.65;20.73;;;;;;;3.02;96.61;98642.50;5097020;28;20399;-72
2021/01/24 03:33:00;;;;;;;62.53;22.08;;;;;;;2.96;96.76;98650.94;5096830;28;20048;-73
2021/01/24 03:36:05;;;;;;;63.13;19.92;;;;;;;2.91;96.92;98658.47;5096874;28;20375;-73
2021/01/24 03:39:09;;;;;;;79.72;22.77;;;;;;;2.90;97.00;98674.47;5096162;28;20048;-73
2021/01/24 03:42:13;;;;;;;36.50;23.55;;;;;;;2.98;97.46;98672.03;5095674;28;20055;-71
2021/01/24 03:45:18;;;;;;;54.20;23.90;;;;;;;3.04;97.56;98655.59;5095989;28;20055;-73
2021/01/24 03:48:23;;;;;;;55.17;21.88;;;;;;;3.10;97.74;98655.09;5096724;28;20043;-74
2021/01/24 03:51:27;;;;;;;38.00;23.48;;;;;;;3.07;97.74;98656.19;5081967;28;20502;-73
2021/01/24 03:54:31;;;;;;;66.80;25.35;;;;;;;2.99;97.84;98648.03;5092846;28;20106;-74
2021/01/24 03:57:36;;;;;;;28.92;22.52;;;;;;;3.10;98.35;98649.81;5101959;28;20514;-73
2021/01/24 04:00:40;;;;;;;164.68;24.20;;;;;;;3.09;98.22;98653.41;5091253;28;20051;-73
2021/01/24 04:03:44;;;;;;;238.77;24.85;;;;;;;3.03;98.24;98656.59;5096206;28;20066;-73
2021/01/24 04:06:48;;;;;;;;;;;;;;;2.95;98.38;98651.94;5096501;28;20070;-73
2021/01/24 04:09:53;;;;;;;79.90;22.88;;;;;;;2.90;98.65;98647.97;5096132;28;19916;-73
2021/01/24 04:12:57;;;;;;;109.22;22.55;;;;;;;2.94;98.85;98647.59;5095666;28;20067;-73
2021/01/24 04:16:02;;;;;;;128.00;25.13;;;;;;;2.82;99.05;98640.66;5095893;28;20062;-73
2021/01/24 04:19:06;;;;;;;33.53;24.73;;;;;;;2.88;99.05;98644.63;5094965;28;20066;-73
2021/01/24 04:22:10;;;;;;;41.33;24.25;;;;;;;2.95;99.55;98651.09;5095707;28;20043;-73
2021/01/24 04:25:16;;;;;;;27.85;23.08;;;;;;;3.00;99.49;98660.34;5092290;28;20047;-72
2021/01/24 04:28:20;;;;;;;95.00;24.92;;;;;;;3.01;99.52;98661.19;5095262;28;20055;-73
2021/01/24 04:31:25;;;;;;;83.50;23.65;;;;;;;2.98;99.83;98674.69;5082700;28;20055;-73
2021/01/24 04:34:29;;;;;;;101.72;24.17;;;;;;;3.01;99.68;98671.78;5086983;28;20063;-74
2021/01/24 04:37:33;;;;;;;29.15;23.00;;;;;;;3.02;99.63;98674.28;5086349;28;20063;-73
2021/01/24 04:40:37;;;;;;;166.77;23.83;;;;;;;2.98;99.65;98670.25;5087646;28;20043;-74
2021/01/24 04:43:42;;;;;;;131.20;21.50;;;;;;;2.99;99.74;98673.69;5092161;28;20430;-73
2021/01/24 04:46:47;;;;;;;64.68;21.70;;;;;;;2.96;99.55;98674.78;5093554;28;20051;-73
2021/01/24 04:49:51;;;;;;;46.17;21.65;;;;;;;2.97;99.46;98676.50;5092412;28;20051;-73
2021/01/24 04:52:59;;;;;;;27.05;20.95;;;;;;;2.99;99.41;98676.34;5095032;28;20051;-73
2021/01/24 04:56:03;;;;;;;57.20;22.85;;;;;;;2.91;99.48;98670.88;5094319;28;20051;-72
2021/01/24 04:59:07;;;;;;;65.95;24.98;;;;;;;2.88;99.46;98673.78;5074698;28;20414;-72
2021/01/24 05:02:13;;;;;;;34.67;23.33;;;;;;;2.92;99.68;98667.25;5074773;28;20063;-74
2021/01/24 05:05:17;;;;;;;54.15;24.02;;;;;;;3.00;99.35;98673.59;5081405;28;20047;-74
2021/01/24 05:08:23;;;;;;;92.60;23.98;;;;;;;3.06;99.57;98659.81;5082152;28;20102;-71
2021/01/24 05:11:27;;;;;;;118.13;23.15;;;;;;;3.01;99.39;98654.06;5074331;28;20048;-71
2021/01/24 05:14:31;;;;;;;110.90;24.13;;;;;;;2.95;99.13;98659.88;5073547;28;20043;-74
2021/01/24 05:17:54;;;;;;;28.08;23.27;;;;;;;3.02;98.90;98650.44;5073976;28;20059;-74
2021/01/24 05:20:58;;;;;;;74.65;23.95;;;;;;;3.00;99.22;98648.91;5078002;28;20055;-73
2021/01/24 05:24:06;;;;;;;30.65;23.50;;;;;;;3.04;99.37;98656.44;5095154;28;20055;-72
2021/01/24 05:27:12;;;;;;;56.50;24.08;;;;;;;3.08;98.99;98652.59;5091872;28;20498;-73
2021/01/24 05:30:32;;;;;;;43.42;24.13;;;;;;;3.13;99.07;98647.75;5076856;28;20059;-73
2021/01/24 05:33:42;;;;;;;43.95;23.00;;;;;;;3.02;98.74;98642.50;5094609;28;20055;-71
2021/01/24 05:36:46;;;;;;;33.80;24.48;;;;;;;3.05;98.83;98652.84;5074041;28;20051;-73
2021/01/24 05:39:52;;;;;;;60.10;23.45;;;;;;;3.02;98.75;98645.16;5073955;28;20047;-74
2021/01/24 05:43:00;;;;;;;37.92;23.10;;;;;;;3.10;98.98;98648.00;5073759;28;20055;-72
2021/01/24 05:46:05;;;;;;;43.90;23.48;;;;;;;3.10;98.80;98640.03;5074000;28;20044;-73
2021/01/24 05:49:12;;;;;;;41.28;23.17;;;;;;;3.02;98.74;98637.19;5079175;28;20043;-73
2021/01/24 05:52:19;;;;;;;41.92;22.90;;;;;;;3.09;98.47;98626.91;5102849;28;20514;-73
2021/01/24 05:55:31;;;;;;;63.67;21.58;;;;;;;3.07;98.38;98640.28;5090409;28;20068;-73
2021/01/24 05:58:38;;;;;;;29.70;22.38;;;;;;;3.14;98.49;98620.25;5073884;28;20055;-76
2021/01/24 06:01:42;;;;;;;77.90;23.05;;;;;;;3.13;98.49;98612.44;5082611;28;20060;-73
2021/01/24 06:04:48;;;;;;;66.85;22.63;;;;;;;2.95;98.08;98614.00;5073729;28;20047;-72
2021/01/24 06:07:55;;;;;;;43.95;24.55;;;;;;;2.91;98.22;98631.97;5073682;28;20048;-73
2021/01/24 06:10:59;;;;;;;57.60;25.02;;;;;;;2.87;98.48;98624.38;5075474;28;20059;-74
2021/01/24 06:14:07;;;;;;;32.95;25.33;;;;;;;2.88;98.60;98624.28;5084388;28;20400;-73
2021/01/24 06:17:29;;;;;;;48.17;24.70;;;;;;;2.89;98.58;98614.53;5102763;28;20055;-72
2021/01/24 06:20:41;;;;;;;35.13;24.50;;;;;;;2.91;98.52;98612.59;5093763;28;20051;-73
2021/01/24 06:23:53;;;;;;;35.47;24.70;;;;;;;2.99;98.66;98615.41;5093828;28;20059;-73
2021/01/24 06:27:01;;;;;;;31.60;23.75;;;;;;;3.06;98.69;98633.31;5093520;28;20470;-72
2021/01/24 06:30:11;;;;;;;29.35;22.80;;;;;;;3.11;98.57;98631.09;5094260;28;20522;-73
2021/01/24 06:33:18;;;;;;;32.15;24.35;;;;;;;3.17;98.53;98630.59;5092950;28;20059;-73
2021/01/24 06:36:22;;;;;;;32.10;24.42;;;;;;;3.25;98.77;98641.41;5077226;28;20055;-73
2021/01/24 06:39:31;;;;;;;32.40;26.27;;;;;;;3.26;98.44;98634.25;5077209;28;20059;-73
2021/01/24 06:42:41;;;;;;;34.03;26.25;;;;;;;3.26;98.36;98629.81;5081106;28;20051;-74
2021/01/24 06:45:46;;;;;;;35.13;27.50;;;;;;;3.31;98.13;98631.25;5097569;28;20047;-73
2021/01/24 06:48:52;;;;;;;32.65;26.17;;;;;;;3.22;97.72;98633.69;5096680;28;20043;-74
2021/01/24 06:52:14;;;;;;;33.60;27.10;;;;;;;3.27;98.03;98642.09;5097245;28;20051;-72
2021/01/24 06:55:27;;;;;;;32.50;26.13;;;;;;;3.32;97.86;98643.50;5097633;28;20059;-75
2021/01/24 06:58:46;;;;;;;29.98;24.98;;;;;;;3.31;97.65;98641.84;5096673;28;20039;-75
2021/01/24 07:01:50;;;;;;;31.65;25.40;;;;;;;3.28;97.68;98651.72;5097140;28;20513;-76
2021/01/24 07:05:18;;;;;;;32.00;25.98;;;;;;;3.33;97.53;98658.47;5096495;28;20047;-77
2021/01/24 07:08:31;;;;;;;30.35;25.45;;;;;;;3.34;97.66;98652.16;5097509;28;20039;-75
2021/01/24 07:11:49;;;;;;;31.63;25.88;;;;;;;3.35;97.68;98654.72;5097007;28;20047;-75
2021/01/24 07:14:54;;;;;;;28.73;24.02;;;;;;;3.32;97.52;98654.13;5096720;28;20065;-74
2021/01/24 07:17:59;;;;;;;27.42;24.52;;;;;;;3.26;97.52;98663.41;5093990;28;21279;-70
2021/01/24 07:21:04;;;;;;;30.40;27.10;;;;;;;3.11;97.82;98660.25;5096114;28;20071;-71
2021/01/24 07:24:08;;;;;;;33.15;29.63;;;;;;;3.01;98.19;98667.31;5096695;28;20052;-71
2021/01/24 07:27:18;;;;;;;35.38;31.58;;;;;;;2.99;98.78;98657.81;5096298;28;20059;-74
2021/01/24 07:30:24;;;;;;;36.42;32.38;;;;;;;3.02;99.10;98674.28;5095074;28;20066;-75
2021/01/24 07:33:30;;;;;;;34.35;30.48;;;;;;;3.07;99.21;98700.41;5095050;28;20070;-77
2021/01/24 07:36:34;;;;;;;32.70;29.02;;;;;;;3.16;99.25;98726.97;5095317;28;20047;-77
2021/01/24 07:39:40;;;;;;;37.70;31.85;;;;;;;3.27;99.27;98721.63;5094766;28;20059;-72
2021/01/24 07:42:46;;;;;;;35.53;29.50;;;;;;;3.31;99.31;98726.69;5095494;28;20043;-72
2021/01/24 07:45:50;;;;;;;34.80;29.15;;;;;;;3.22;98.80;98726.47;5095201;28;20391;-72
2021/01/24 07:48:54;;;;;;;32.90;28.55;;;;;;;3.21;98.85;98719.50;5092436;28;20510;-73
2021/01/24 07:51:59;;;;;;;35.35;29.73;;;;;;;3.23;98.75;98725.50;5091090;28;20051;-72
2021/01/24 07:55:04;;;;;;;35.28;29.17;;;;;;;3.13;98.64;98713.16;5092012;28;20553;-72
2021/01/24 07:58:08;;;;;;;35.97;28.88;;;;;;;3.08;98.01;98724.16;5092137;28;20399;-73
2021/01/24 08:01:16;;;;;;;35.22;30.20;;;;;;;3.04;98.32;98725.34;5091870;28;20051;-71
2021/01/24 08:04:23;;;;;;;41.17;33.63;;;;;;;3.04;98.55;98727.16;5094115;28;20078;-72
2021/01/24 08:07:30;;;;;;;45.15;35.95;;;;;;;3.08;98.58;98744.50;5082539;28;20047;-71
2021/01/24 08:10:35;;;;;;;46.50;35.55;;;;;;;3.12;98.84;98744.13;5094873;28;20047;-72
2021/01/24 08:13:42;;;;;;;40.92;33.47;;;;;;;3.17;98.79;98720.72;5093963;28;20051;-72
2021/01/24 08:16:49;;;;;;;43.95;33.92;;;;;;;3.26;98.91;98719.94;5094509;28;20055;-72
2021/01/24 08:19:57;;;;;;;64.20;38.58;;;;;;;3.25;98.87;98733.34;5094815;28;20490;-71
2021/01/24 08:23:01;;;;;;;97.05;40.60;;;;;;;3.25;98.83;98723.59;5094834;28;20051;-71
2021/01/24 08:26:07;;;;;;;84.82;42.90;;;;;;;3.24;99.38;98729.00;5094686;28;20355;-71
2021/01/24 08:29:11;;;;;;;72.57;42.73;;;;;;;3.33;99.63;98727.41;5062307;28;922562;-70
2021/01/24 08:32:17;;;;;;;87.93;46.15;;;;;;;3.35;99.79;98730.75;5095175;28;20787;-70
2021/01/24 08:35:21;;;;;;;100.45;47.60;;;;;;;3.46;100.00;98728.03;5094697;28;20047;-73
2021/01/24 08:38:26;;;;;;;109.03;48.25;;;;;;;3.49;100.00;98746.34;5095223;28;20044;-71
2021/01/24 08:41:38;;;;;;;94.60;49.30;;;;;;;3.51;100.00;98752.34;5095431;28;20466;-73
2021/01/24 08:44:59;;;;;;;116.75;56.13;;;;;;;3.57;100.00;98743.88;5095411;28;20055;-71
2021/01/24 08:48:05;;;;;;;150.93;74.82;;;;;;;3.55;100.00;98754.63;5095830;28;20040;-71
2021/01/24 08:51:10;;;;;;;91.68;50.90;;;;;;;3.62;100.00;98747.00;5095433;28;20459;-71
2021/01/24 08:54:31;;;;;;;88.22;51.08;;;;;;;3.69;100.00;98766.72;5095350;28;20055;-70
2021/01/24 08:57:36;;;;;;;103.45;49.35;;;;;;;3.68;100.00;98765.06;5094702;28;20059;-71
2021/01/24 09:00:41;;;;;;;75.88;47.83;;;;;;;3.75;100.00;98768.84;5095301;28;20048;-77
2021/01/24 09:03:45;;;;;;;93.40;45.10;;;;;;;3.72;100.00;98767.31;5095278;28;20051;-77
2021/01/24 09:07:04;;;;;;;76.53;45.95;;;;;;;3.80;100.00;98778.09;5095245;28;20055;-76
2021/01/24 09:10:23;;;;;;;69.85;43.28;;;;;;;3.92;100.00;98776.22;5095101;28;20043;-73
2021/01/24 09:13:28;;;;;;;68.55;43.72;;;;;;;3.96;100.00;98785.59;5094966;28;20047;-74
2021/01/24 09:16:32;;;;;;;103.57;44.90;;;;;;;3.96;100.00;98785.59;5094098;28;20411;-76
2021/01/24 09:19:41;;;;;;;89.93;45.22;;;;;;;3.94;100.00;98784.88;5094787;28;20075;-76
2021/01/24 09:22:47;;;;;;;74.03;43.30;;;;;;;3.97;100.00;98789.09;5094968;28;20391;-74
2021/01/24 09:25:51;;;;;;;71.13;44.58;;;;;;;4.03;100.00;98789.38;5094578;28;20047;-74
2021/01/24 09:28:55;;;;;;;71.28;45.58;;;;;;;4.11;100.00;98786.06;5093094;28;20399;-73
2021/01/24 09:32:00;;;;;;;79.70;46.03;;;;;;;4.11;100.00;98789.59;5093622;28;20051;-72
2021/01/24 09:35:06;;;;;;;74.28;44.95;;;;;;;4.22;100.00;98796.63;5094701;28;20051;-70
2021/01/24 09:38:10;;;;;;;74.50;46.05;;;;;;;4.22;100.00;98794.78;5094670;28;20051;-72
2021/01/24 09:41:15;;;;;;;78.68;45.97;;;;;;;4.27;99.90;98792.56;5094560;28;20051;-72
2021/01/24 09:44:19;;;;;;;74.13;45.85;;;;;;;4.32;99.79;98808.94;5082135;28;20066;-70
2021/01/24 09:47:23;;;;;;;79.70;51.00;;;;;;;4.41;99.79;98817.94;5094195;28;20051;-73
2021/01/24 09:50:29;;;;;;;80.05;49.60;;;;;;;4.47;99.56;98826.22;5094509;28;20051;-73
2021/01/24 09:53:36;;;;;;;67.68;43.55;;;;;;;4.50;99.33;98831.25;5094382;28;20047;-73
2021/01/24 09:56:41;;;;;;;65.95;41.60;;;;;;;4.44;98.95;98837.09;5094104;28;20051;-72
2021/01/24 09:59:45;;;;;;;61.92;40.25;;;;;;;4.47;98.95;98839.50;5094600;28;20051;-71
2021/01/24 10:02:50;;;;;;;64.65;40.55;;;;;;;4.51;98.93;98842.75;5094050;28;20059;-70
2021/01/24 10:05:55;;;;;;;63.45;41.85;;;;;;;4.49;98.49;98850.81;5093494;28;20051;-71
2021/01/24 10:09:00;;;;;;;63.63;42.65;;;;;;;4.49;98.35;98866.75;5094216;28;20066;-71
2021/01/24 10:12:05;;;;;;;69.28;42.17;;;;;;;4.49;98.19;98872.06;5093322;28;20383;-75
2021/01/24 10:15:10;;;;;;;63.20;42.75;;;;;;;4.54;98.06;98864.56;5094191;28;20051;-77
2021/01/24 10:18:15;;;;;;;71.13;41.67;;;;;;;4.59;97.88;98866.84;5092996;28;20389;-76
2021/01/24 10:21:19;;;;;;;66.85;43.00;;;;;;;4.64;97.97;98872.59;5094098;28;20493;-74
2021/01/24 10:24:23;;;;;;;68.10;42.72;;;;;;;4.69;97.61;98869.53;5094030;28;20047;-76
2021/01/24 10:27:28;;;;;;;71.75;42.55;;;;;;;4.58;97.53;98881.09;5093656;28;20052;-76
2021/01/24 10:30:32;;;;;;;73.32;45.20;;;;;;;4.56;97.83;98880.38;5093772;28;20486;-76
2021/01/24 10:33:37;;;;;;;73.78;45.95;;;;;;;4.48;97.84;98878.38;5093785;28;20051;-76
2021/01/24 10:36:41;;;;;;;82.78;47.97;;;;;;;4.41;97.70;98885.22;5093865;28;20047;-74
2021/01/24 10:39:45;;;;;;;81.57;46.42;;;;;;;4.47;97.97;98886.47;5093780;28;20379;-73
2021/01/24 10:42:50;;;;;;;77.53;45.33;;;;;;;4.46;98.35;98893.63;5093791;28;20110;-73
2021/01/24 10:45:54;;;;;;;82.28;46.28;;;;;;;4.45;98.25;98891.94;5093448;28;20063;-73
2021/01/24 10:48:59;;;;;;;128.65;79.20;;;;;;;4.43;98.40;98896.53;5092881;28;20044;-74
2021/01/24 10:52:07;;;;;;;135.23;84.07;;;;;;;4.41;98.91;98895.84;5093969;28;20052;-73
2021/01/24 10:55:12;;;;;;;91.03;53.00;;;;;;;4.48;98.67;98910.25;5093694;28;20051;-76
2021/01/24 10:58:16;;;;;;;79.60;47.15;;;;;;;4.52;98.95;98905.50;5093688;28;20441;-77
2021/01/24 11:01:20;;;;;;;90.47;49.67;;;;;;;4.50;98.81;98907.47;5093657;28;20386;-74
2021/01/24 11:04:24;;;;;;;91.45;46.95;;;;;;;4.41;99.10;98922.41;5093901;28;20055;-76
2021/01/24 11:07:29;;;;;;;82.65;48.22;;;;;;;4.49;99.16;98919.91;5093560;28;20067;-74
2021/01/24 11:10:33;;;;;;;86.50;48.38;;;;;;;4.50;99.21;98921.59;5092760;28;20379;-77
2021/01/24 11:13:37;;;;;;;86.85;49.13;;;;;;;4.46;99.30;98927.31;5092647;28;20059;-74
2021/01/24 11:16:42;;;;;;;88.32;50.13;;;;;;;4.50;99.22;98926.91;5096228;28;20047;-76
2021/01/24 11:19:50;;;;;;;95.45;51.85;;;;;;;4.47;99.69;98926.31;5097187;28;20044;-73
2021/01/24 11:22:54;;;;;;;94.15;51.78;;;;;;;4.46;99.88;98924.66;5097191;28;20122;-74
2021/01/24 11:25:59;;;;;;;87.78;50.83;;;;;;;4.51;99.97;98930.41;5096851;28;20391;-72
2021/01/24 11:29:04;;;;;;;87.22;50.75;;;;;;;4.54;99.62;98936.28;5096438;28;20055;-74
2021/01/24 11:32:10;;;;;;;95.13;51.33;;;;;;;4.58;99.96;98924.44;5096782;28;20047;-73
2021/01/24 11:35:17;;;;;;;85.90;49.45;;;;;;;4.64;100.00;98932.88;5096144;28;20384;-74
2021/01/24 11:38:21;;;;;;;87.68;51.47;;;;;;;4.65;100.00;98922.09;5096079;28;20379;-75
2021/01/24 11:41:25;;;;;;;83.88;48.45;;;;;;;4.75;100.00;98919.47;5096866;28;20395;-74
2021/01/24 11:44:30;;;;;;;75.05;46.65;;;;;;;4.72;100.00;98915.25;5096460;28;20067;-73
2021/01/24 11:47:36;;;;;;;80.85;47.03;;;;;;;4.81;100.00;98919.81;5096748;28;20051;-73
2021/01/24 11:50:40;;;;;;;81.55;48.17;;;;;;;4.85;99.55;98925.69;5096676;28;20379;-75
2021/01/24 11:53:44;;;;;;;76.97;46.83;;;;;;;4.95;99.79;98915.91;5096393;28;20055;-74
2021/01/24 11:56:49;;;;;;;80.15;46.17;;;;;;;5.07;99.63;98918.34;5096533;28;20425;-74
2021/01/24 11:59:53;;;;;;;77.18;45.58;;;;;;;5.18;99.27;98912.09;5096387;28;20493;-74
2021/01/24 12:02:57;;;;;;;81.43;46.58;;;;;;;5.19;98.79;98905.78;5096347;28;20070;-73
2021/01/24 12:06:02;;;;;;;77.88;45.67;;;;;;;5.33;98.90;98909.88;5096351;28;20040;-73
2021/01/24 12:09:06;;;;;;;70.68;42.28;;;;;;;5.41;98.48;98910.84;5096037;28;20414;-73
2021/01/24 12:12:10;;;;;;;73.25;40.83;;;;;;;5.48;97.84;98909.31;5096172;28;20048;-73
2021/01/24 12:15:15;;;;;;;72.40;41.30;;;;;;;5.55;97.60;98899.84;5095365;28;20059;-74
2021/01/24 12:18:19;;;;;;;69.78;39.17;;;;;;;5.60;96.92;98892.28;5096122;28;20374;-73
2021/01/24 12:21:24;;;;;;;69.72;40.05;;;;;;;5.64;96.58;98900.81;5095270;28;20039;-72
2021/01/24 12:24:28;;;;;;;65.13;38.45;;;;;;;5.62;96.29;98895.63;5096086;28;20051;-75
2021/01/24 12:27:32;;;;;;;66.50;37.08;;;;;;;5.75;96.25;98906.81;5094318;28;20043;-73
2021/01/24 12:30:36;;;;;;;69.50;41.28;;;;;;;5.87;95.98;98903.09;5095933;28;20051;-76
2021/01/24 12:33:41;;;;;;;73.63;40.15;;;;;;;6.03;95.18;98897.19;5083285;28;20048;-73
2021/01/24 12:36:45;;;;;;;59.60;36.50;;;;;;;6.06;94.70;98898.72;5095442;28;20494;-73
2021/01/24 12:39:50;;;;;;;62.05;36.28;;;;;;;6.12;94.34;98908.81;5095672;28;20489;-75
2021/01/24 12:42:54;;;;;;;60.08;33.97;;;;;;;6.07;94.01;98895.94;5095451;28;20044;-76
2021/01/24 12:45:58;;;;;;;55.70;33.17;;;;;;;6.14;94.44;98904.19;5095485;28;20043;-71
2021/01/24 12:49:03;;;;;;;55.78;33.75;;;;;;;6.14;93.95;98896.19;5095460;28;20043;-73
2021/01/24 12:52:07;;;;;;;52.78;29.42;;;;;;;6.29;93.20;98894.78;5095423;28;20051;-75
2021/01/24 12:55:12;;;;;;;44.65;29.27;;;;;;;6.37;92.54;98900.25;5094536;28;20055;-74
2021/01/24 12:58:16;;;;;;;40.78;27.73;;;;;;;6.54;92.01;98899.50;5095430;28;20079;-72
2021/01/24 13:01:21;;;;;;;37.55;24.88;;;;;;;6.63;91.78;98893.28;5094463;28;20066;-74
2021/01/24 13:04:25;;;;;;;39.75;27.52;;;;;;;6.66;90.99;98901.00;5095269;28;20047;-75
2021/01/24 13:07:30;;;;;;;36.05;26.73;;;;;;;6.66;90.41;98900.16;5094829;28;20051;-74
2021/01/24 13:10:34;;;;;;;37.40;26.17;;;;;;;6.73;90.41;98901.25;5095057;28;20067;-74
2021/01/24 13:13:39;;;;;;;33.53;24.38;;;;;;;6.82;89.74;98898.53;5094918;28;20051;-74
2021/01/24 13:16:44;;;;;;;35.25;25.15;;;;;;;6.94;89.38;98907.19;5094223;28;20391;-73
2021/01/24 13:19:48;;;;;;;36.22;26.38;;;;;;;7.18;88.97;98902.97;5094010;28;20486;-74
2021/01/24 13:22:52;;;;;;;98.80;72.43;;;;;;;7.17;87.93;98898.66;5094045;28;20051;-74
2021/01/24 13:25:57;;;;;;;47.60;33.97;;;;;;;7.03;88.01;98893.81;5094800;28;20058;-76
2021/01/24 13:29:01;;;;;;;32.10;24.45;;;;;;;7.12;88.51;98903.59;5093814;28;20406;-72
2021/01/24 13:32:05;;;;;;;28.98;21.67;;;;;;;7.30;88.11;98905.47;5093572;28;20069;-72
2021/01/24 13:35:10;;;;;;;27.63;21.45;;;;;;;7.43;86.92;98897.94;5094614;28;20051;-72
2021/01/24 13:38:14;;;;;;;25.70;20.05;;;;;;;7.52;85.93;98908.56;5094182;28;20058;-72
2021/01/24 13:41:19;;;;;;;26.73;21.95;;;;;;;7.61;85.59;98901.47;5082095;28;20070;-72
2021/01/24 13:44:23;;;;;;;32.47;23.33;;;;;;;7.57;85.72;98905.44;5094195;28;20081;-73
2021/01/24 13:47:28;;;;;;;29.70;22.77;;;;;;;7.36;85.79;98913.69;5094453;28;20537;-73
2021/01/24 13:50:32;;;;;;;26.98;21.55;;;;;;;7.28;86.37;98915.44;5093858;28;20047;-73
2021/01/24 13:53:36;;;;;;;28.73;23.02;;;;;;;7.11;86.65;98912.56;5094283;28;20047;-73
2021/01/24 13:56:41;;;;;;;29.70;22.92;;;;;;;7.04;87.03;98913.31;5093510;28;20387;-72
2021/01/24 13:59:45;;;;;;;31.80;23.52;;;;;;;6.95;87.63;98908.88;5094280;28;20055;-72
2021/01/24 14:02:49;;;;;;;30.70;23.88;;;;;;;6.89;87.44;98910.28;5093352;28;20071;-73
2021/01/24 14:05:55;;;;;;;32.92;24.80;;;;;;;6.90;87.71;98916.47;5094214;28;20047;-72
2021/01/24 14:09:00;;;;;;;28.17;23.45;;;;;;;6.87;88.22;98914.94;5094253;28;20051;-72
2021/01/24 14:12:05;;;;;;;31.17;22.75;;;;;;;6.88;88.06;98913.97;5093816;28;20051;-72
2021/01/24 14:15:10;;;;;;;29.45;22.50;;;;;;;6.81;88.49;98910.22;5094055;28;20047;-73
2021/01/24 14:18:14;;;;;;;26.33;22.42;;;;;;;6.84;88.41;98901.88;5094074;28;20387;-74
2021/01/24 14:21:19;;;;;;;28.60;24.45;;;;;;;6.81;88.87;98907.53;5094011;28;20513;-72
2021/01/24 14:24:23;;;;;;;239.25;167.52;;;;;;;6.83;89.31;98910.88;5093955;28;20051;-72